Time;durP1;ratioP1;P1;durP2;ratioP2;P2;SDS_P1;SDS_P2;PMS_P1;PMS_P2;Temp;Humidity;BMP_temperature;BMP_pressure;BME280_temperature;BME280_humidity;BME280_pressure;Samples;Min_cycle;Max_cycle;Signal;HPM_P1;HPM_P2
2023/11/07 00:02:03;;;;;;;2.30;1.20;;;;;;;;;;5018950;28;20025;-86
2023/11/07 00:04:48;;;;;;;1.90;1.02;;;;;;;;;;4998266;28;20054;-86
2023/11/07 00:07:33;;;;;;;1.63;0.90;;;;;;;;;;5008639;28;20068;-86
2023/11/07 00:10:18;;;;;;;1.88;0.90;;;;;;;;;;5012463;28;20050;-86
2023/11/07 00:13:04;;;;;;;2.45;1.02;;;;;;;;;;5011071;28;20033;-86
2023/11/07 00:15:49;;;;;;;2.58;1.05;;;;;;;;;;4994843;28;20069;-85
2023/11/07 00:18:34;;;;;;;5.25;1.08;;;;;;;;;;5014089;28;20095;-85
2023/11/07 00:21:22;;;;;;;0.82;0.82;;;;;;;;;;5011373;28;20120;-86
2023/11/07 00:24:07;;;;;;;2.13;1.13;;;;;;;;;;5014870;28;20029;-85
2023/11/07 00:26:53;;;;;;;2.20;1.00;;;;;;;;;;5012620;28;20032;-86
2023/11/07 00:29:38;;;;;;;4.22;1.27;;;;;;;;;;5012658;28;20029;-85
2023/11/07 00:32:23;;;;;;;1.20;0.80;;;;;;;;;;5002762;28;20037;-85
2023/11/07 00:35:09;;;;;;;3.17;1.00;;;;;;;;;;5007864;28;20025;-86
2023/11/07 00:37:54;;;;;;;4.13;1.15;;;;;;;;;;5013197;28;20037;-86
2023/11/07 00:40:39;;;;;;;0.70;0.70;;;;;;;;;;5012999;28;20395;-86
2023/11/07 00:43:24;;;;;;;2.45;0.80;;;;;;;;;;4998310;28;20030;-86
2023/11/07 00:46:10;;;;;;;1.05;0.80;;;;;;;;;;4995809;28;20040;-86
2023/11/07 00:48:55;;;;;;;0.93;0.82;;;;;;;;;;5006036;28;20412;-86
2023/11/07 00:51:40;;;;;;;2.58;0.90;;;;;;;;;;5007772;28;20025;-86
2023/11/07 00:54:25;;;;;;;1.95;1.00;;;;;;;;;;5002415;28;20036;-85
2023/11/07 00:57:10;;;;;;;1.17;0.90;;;;;;;;;;5014035;28;20033;-87
2023/11/07 00:59:56;;;;;;;1.73;1.13;;;;;;;;;;5028360;28;20029;-87
2023/11/07 01:02:41;;;;;;;2.08;0.98;;;;;;;;;;4999923;28;20659;-87
2023/11/07 01:05:26;;;;;;;3.10;0.93;;;;;;;;;;5012034;28;20067;-85
2023/11/07 01:08:12;;;;;;;2.75;1.00;;;;;;;;;;5002666;28;20178;-84
2023/11/07 01:10:57;;;;;;;1.05;0.80;;;;;;;;;;5013133;28;20052;-85
2023/11/07 01:13:42;;;;;;;3.15;1.15;;;;;;;;;;5012689;28;20033;-85
2023/11/07 01:16:27;;;;;;;1.77;1.02;;;;;;;;;;5012488;28;20063;-84
2023/11/07 01:19:13;;;;;;;3.10;1.08;;;;;;;;;;5004766;28;20120;-86
2023/11/07 01:21:58;;;;;;;3.50;1.00;;;;;;;;;;4999169;28;20072;-85
2023/11/07 01:24:43;;;;;;;2.17;0.80;;;;;;;;;;5011524;28;20396;-86
2023/11/07 01:27:28;;;;;;;2.25;0.90;;;;;;;;;;5012422;28;20033;-85
2023/11/07 01:30:14;;;;;;;1.00;0.70;;;;;;;;;;5010849;28;20361;-86
2023/11/07 01:32:59;;;;;;;3.38;1.30;;;;;;;;;;5012201;28;20128;-87
2023/11/07 01:35:47;;;;;;;3.53;0.90;;;;;;;;;;5011966;28;20116;-87
2023/11/07 01:38:33;;;;;;;3.15;1.27;;;;;;;;;;5010791;28;20033;-86
2023/11/07 01:41:19;;;;;;;4.40;0.90;;;;;;;;;;5012720;28;20030;-87
2023/11/07 01:44:04;;;;;;;2.53;1.30;;;;;;;;;;4992626;28;20037;-88
2023/11/07 01:46:50;;;;;;;2.42;1.08;;;;;;;;;;5010716;28;20083;-86
2023/11/07 01:49:35;;;;;;;2.88;1.20;;;;;;;;;;4993151;28;20022;-86
2023/11/07 01:52:20;;;;;;;1.17;0.93;;;;;;;;;;5002048;28;20025;-87
2023/11/07 01:55:07;;;;;;;3.42;1.05;;;;;;;;;;5018522;28;20116;-88
2023/11/07 01:57:52;;;;;;;2.53;0.80;;;;;;;;;;5011857;28;20064;-87
2023/11/07 02:00:39;;;;;;;3.80;0.93;;;;;;;;;;5012320;28;20593;-88
2023/11/07 02:03:25;;;;;;;0.80;0.80;;;;;;;;;;5012657;28;20033;-87
2023/11/07 02:06:10;;;;;;;2.63;1.20;;;;;;;;;;5011838;28;20104;-87
2023/11/07 02:08:56;;;;;;;1.10;1.00;;;;;;;;;;4999150;28;20862;-86
2023/11/07 02:11:41;;;;;;;1.92;0.80;;;;;;;;;;5011406;28;20105;-86
2023/11/07 02:14:30;;;;;;;2.58;1.02;;;;;;;;;;5012003;28;20105;-87
2023/11/07 02:17:15;;;;;;;2.63;1.33;;;;;;;;;;5009621;28;20022;-86
2023/11/07 02:20:00;;;;;;;2.88;0.98;;;;;;;;;;5012395;28;20496;-87
2023/11/07 02:22:49;;;;;;;3.10;0.90;;;;;;;;;;5014978;28;20068;-86
2023/11/07 02:25:34;;;;;;;1.55;1.05;;;;;;;;;;5017529;28;20040;-86
2023/11/07 02:28:20;;;;;;;4.05;1.10;;;;;;;;;;5018014;28;20124;-86
2023/11/07 02:31:05;;;;;;;2.22;0.77;;;;;;;;;;5028122;28;20029;-87
2023/11/07 02:33:51;;;;;;;3.00;0.75;;;;;;;;;;5021287;28;20060;-87
2023/11/07 02:36:39;;;;;;;1.17;0.75;;;;;;;;;;5008252;28;20112;-87
2023/11/07 02:39:25;;;;;;;1.27;1.00;;;;;;;;;;5005612;28;20105;-87
2023/11/07 02:42:10;;;;;;;1.88;1.40;;;;;;;;;;5015206;28;20386;-87
2023/11/07 02:44:58;;;;;;;5.50;1.80;;;;;;;;;;5012256;28;20025;-87
2023/11/07 02:47:44;;;;;;;3.38;1.05;;;;;;;;;;5014472;28;20026;-88
2023/11/07 02:50:29;;;;;;;2.30;1.02;;;;;;;;;;5021319;28;20037;-87
2023/11/07 02:53:15;;;;;;;1.58;0.98;;;;;;;;;;5004772;28;20495;-86
2023/11/07 02:56:01;;;;;;;4.72;1.15;;;;;;;;;;5006374;28;20038;-87
2023/11/07 02:58:46;;;;;;;3.25;1.67;;;;;;;;;;5010502;28;20109;-85
2023/11/07 03:01:32;;;;;;;4.57;1.25;;;;;;;;;;5005714;28;20034;-86
2023/11/07 03:04:17;;;;;;;1.83;0.90;;;;;;;;;;4996468;28;20025;-86
2023/11/07 03:07:02;;;;;;;1.90;0.80;;;;;;;;;;5015700;28;20075;-86
2023/11/07 03:09:48;;;;;;;4.13;1.25;;;;;;;;;;5017084;28;20123;-87
2023/11/07 03:12:33;;;;;;;4.97;1.10;;;;;;;;;;5017966;28;20120;-87
2023/11/07 03:15:18;;;;;;;2.25;0.90;;;;;;;;;;5018052;28;20025;-87
2023/11/07 03:18:04;;;;;;;1.48;1.08;;;;;;;;;;5006219;28;20026;-89
2023/11/07 03:20:49;;;;;;;3.08;1.10;;;;;;;;;;5001518;28;20073;-88
2023/11/07 03:23:34;;;;;;;1.40;0.90;;;;;;;;;;5018330;28;20029;-88
2023/11/07 03:26:20;;;;;;;1.05;0.82;;;;;;;;;;5017672;28;20416;-86
2023/11/07 03:29:05;;;;;;;1.27;0.93;;;;;;;;;;5017914;28;20400;-86
2023/11/07 03:31:50;;;;;;;2.58;0.68;;;;;;;;;;5016137;28;20449;-87
2023/11/07 03:34:35;;;;;;;1.63;0.70;;;;;;;;;;5005825;28;20084;-87
2023/11/07 03:37:20;;;;;;;2.72;1.20;;;;;;;;;;5014658;28;20064;-87
2023/11/07 03:40:06;;;;;;;4.10;0.90;;;;;;;;;;5017669;28;20053;-85
2023/11/07 03:42:52;;;;;;;2.05;0.77;;;;;;;;;;5015265;28;20025;-86
2023/11/07 03:45:37;;;;;;;2.88;1.40;;;;;;;;;;5017550;28;20438;-88
2023/11/07 03:48:22;;;;;;;0.95;0.70;;;;;;;;;;5016624;28;20025;-86
2023/11/07 03:51:07;;;;;;;0.95;0.85;;;;;;;;;;5017297;28;20028;-86
2023/11/07 03:53:53;;;;;;;6.05;1.75;;;;;;;;;;5013155;28;20025;-87
2023/11/07 03:56:42;;;;;;;1.25;0.80;;;;;;;;;;5017386;28;20056;-87
2023/11/07 03:59:28;;;;;;;1.20;0.90;;;;;;;;;;5002843;28;20041;-87
2023/11/07 04:02:13;;;;;;;2.00;0.98;;;;;;;;;;5011173;28;20114;-87
2023/11/07 04:04:58;;;;;;;2.75;1.08;;;;;;;;;;5001307;28;20029;-88
2023/11/07 04:07:43;;;;;;;1.73;0.90;;;;;;;;;;5007408;28;20016;-88
2023/11/07 04:10:29;;;;;;;1.98;1.27;;;;;;;;;;5014619;28;20148;-88
2023/11/07 04:13:14;;;;;;;3.33;1.05;;;;;;;;;;5013303;28;20116;-86
2023/11/07 04:16:02;;;;;;;2.15;1.30;;;;;;;;;;5016204;28;20033;-87
2023/11/07 04:18:53;;;;;;;0.90;0.75;;;;;;;;;;5016122;28;20484;-87
2023/11/07 04:21:38;;;;;;;3.25;1.08;;;;;;;;;;5036920;28;20045;-87
2023/11/07 04:24:23;;;;;;;3.80;1.67;;;;;;;;;;5031697;28;20036;-86
2023/11/07 04:27:26;;;;;;;1.45;1.13;;;;;;;;;;5030089;28;20037;-86
2023/11/07 04:30:13;;;;;;;3.00;1.25;;;;;;;;;;5006878;28;20301;-88
2023/11/07 04:32:58;;;;;;;1.52;1.00;;;;;;;;;;5036646;28;20025;-87
2023/11/07 04:35:44;;;;;;;2.80;1.00;;;;;;;;;;5026636;28;20039;-88
2023/11/07 04:38:30;;;;;;;2.95;1.55;;;;;;;;;;5005082;28;20117;-89
2023/11/07 04:41:16;;;;;;;1.02;0.77;;;;;;;;;;4996639;28;20030;-89
2023/11/07 04:44:02;;;;;;;2.72;1.63;;;;;;;;;;5005499;28;20518;-86
2023/11/07 04:46:47;;;;;;;3.25;0.85;;;;;;;;;;5021059;28;20112;-84
2023/11/07 04:49:33;;;;;;;1.90;0.90;;;;;;;;;;5010393;28;20428;-85
2023/11/07 04:52:19;;;;;;;2.35;0.95;;;;;;;;;;5009083;28;20049;-85
2023/11/07 04:55:04;;;;;;;3.30;1.02;;;;;;;;;;5012971;28;20766;-85
2023/11/07 04:57:50;;;;;;;0.90;0.80;;;;;;;;;;5003099;28;20435;-87
2023/11/07 05:00:35;;;;;;;2.72;1.10;;;;;;;;;;4993247;28;20099;-86
2023/11/07 05:03:21;;;;;;;7.38;0.95;;;;;;;;;;5007551;28;20021;-87
2023/11/07 05:06:06;;;;;;;2.42;1.02;;;;;;;;;;5014193;28;20506;-86
2023/11/07 05:08:52;;;;;;;2.35;0.95;;;;;;;;;;5004553;28;20503;-86
2023/11/07 05:11:37;;;;;;;2.03;1.00;;;;;;;;;;5010643;28;20060;-86
2023/11/07 05:14:22;;;;;;;2.58;1.08;;;;;;;;;;5014012;28;20057;-86
2023/11/07 05:17:08;;;;;;;2.17;0.98;;;;;;;;;;5023402;28;20113;-87
2023/11/07 05:19:53;;;;;;;1.38;0.85;;;;;;;;;;5024428;28;20046;-87
2023/11/07 05:22:38;;;;;;;1.35;0.98;;;;;;;;;;5015947;28;20388;-85
2023/11/07 05:25:23;;;;;;;2.80;1.10;;;;;;;;;;4998267;28;20068;-86
2023/11/07 05:28:08;;;;;;;2.13;1.10;;;;;;;;;;5011930;28;20049;-86
2023/11/07 05:30:54;;;;;;;2.42;1.00;;;;;;;;;;5011991;28;20017;-86
2023/11/07 05:33:41;;;;;;;1.67;1.08;;;;;;;;;;5002394;28;20029;-87
2023/11/07 05:36:26;;;;;;;3.40;1.58;;;;;;;;;;5009958;28;20565;-87
2023/11/07 05:39:11;;;;;;;1.90;1.15;;;;;;;;;;5013557;28;20037;-86
2023/11/07 05:41:58;;;;;;;3.50;1.20;;;;;;;;;;5013130;28;20025;-87
2023/11/07 05:44:44;;;;;;;1.52;0.90;;;;;;;;;;5012056;28;20029;-86
2023/11/07 05:47:29;;;;;;;1.60;0.90;;;;;;;;;;5017731;28;20091;-86
2023/11/07 05:50:15;;;;;;;1.38;0.90;;;;;;;;;;5011889;28;20025;-86
2023/11/07 05:53:00;;;;;;;2.92;1.23;;;;;;;;;;4998588;28;20039;-89
2023/11/07 05:55:45;;;;;;;3.92;1.60;;;;;;;;;;5012118;28;20029;-86
2023/11/07 05:58:31;;;;;;;2.95;1.10;;;;;;;;;;5012062;28;20480;-85
2023/11/07 06:01:16;;;;;;;4.93;1.10;;;;;;;;;;4994427;28;20618;-85
2023/11/07 06:04:04;;;;;;;2.90;1.10;;;;;;;;;;5010298;28;20022;-87
2023/11/07 06:06:49;;;;;;;3.60;1.30;;;;;;;;;;5007994;28;20471;-86
2023/11/07 06:09:34;;;;;;;2.35;1.20;;;;;;;;;;5012239;28;20022;-85
2023/11/07 06:12:19;;;;;;;1.17;1.08;;;;;;;;;;5014004;28;20076;-86
2023/11/07 06:15:05;;;;;;;2.78;1.30;;;;;;;;;;5012568;28;20021;-87
2023/11/07 06:17:50;;;;;;;4.50;1.25;;;;;;;;;;4993783;28;20080;-86
2023/11/07 06:20:35;;;;;;;2.28;1.20;;;;;;;;;;5006739;28;20045;-83
2023/11/07 06:23:22;;;;;;;2.03;1.15;;;;;;;;;;4999414;28;20030;-81
2023/11/07 06:26:08;;;;;;;3.08;1.63;;;;;;;;;;5010983;28;20104;-83
2023/11/07 06:28:53;;;;;;;3.38;1.35;;;;;;;;;;5010998;28;20029;-83
2023/11/07 06:31:39;;;;;;;2.20;1.88;;;;;;;;;;5008850;28;20037;-81
2023/11/07 06:34:24;;;;;;;5.68;2.40;;;;;;;;;;5000975;28;20030;-82
2023/11/07 06:37:12;;;;;;;4.10;1.60;;;;;;;;;;5000445;28;20045;-82
2023/11/07 06:40:06;;;;;;;2.90;1.50;;;;;;;;;;5003395;28;20551;-86
2023/11/07 06:42:54;;;;;;;4.25;1.58;;;;;;;;;;5016526;28;20040;-90
2023/11/07 06:45:40;;;;;;;3.80;1.25;;;;;;;;;;5011602;28;20545;-89
2023/11/07 06:48:28;;;;;;;2.40;1.77;;;;;;;;;;5010083;28;20391;-85
2023/11/07 06:51:14;;;;;;;4.53;1.73;;;;;;;;;;5008588;28;20040;-88
2023/11/07 06:54:02;;;;;;;4.72;1.83;;;;;;;;;;5014536;28;20048;-88
2023/11/07 06:56:47;;;;;;;4.13;1.85;;;;;;;;;;5002174;28;20034;-86
2023/11/07 06:59:32;;;;;;;5.75;2.22;;;;;;;;;;5000762;28;20554;-88
2023/11/07 07:02:17;;;;;;;4.38;2.20;;;;;;;;;;5006181;28;20037;-87
2023/11/07 07:05:03;;;;;;;6.82;2.20;;;;;;;;;;4996814;28;20030;-85
2023/11/07 07:07:49;;;;;;;9.02;2.03;;;;;;;;;;4999257;28;20407;-87
2023/11/07 07:10:46;;;;;;;5.10;2.10;;;;;;;;;;5007884;28;20029;-85
2023/11/07 07:13:47;;;;;;;2.47;1.55;;;;;;;;;;4995159;28;20029;-85
2023/11/07 07:16:33;;;;;;;5.18;1.60;;;;;;;;;;5003980;28;20506;-85
2023/11/07 07:19:18;;;;;;;5.28;1.55;;;;;;;;;;5013361;28;20049;-84
2023/11/07 07:22:05;;;;;;;2.92;1.55;;;;;;;;;;5013615;28;20091;-85
2023/11/07 07:24:52;;;;;;;3.55;1.88;;;;;;;;;;5010700;28;20071;-86
2023/11/07 07:27:44;;;;;;;3.08;1.60;;;;;;;;;;5008196;28;20025;-86
2023/11/07 07:30:32;;;;;;;3.65;2.15;;;;;;;;;;5003530;28;20041;-86
2023/11/07 07:33:19;;;;;;;3.70;2.20;;;;;;;;;;5001273;28;20064;-86
2023/11/07 07:36:04;;;;;;;3.38;1.67;;;;;;;;;;5003511;28;20127;-85
2023/11/07 07:52:22;;;;;;;4.03;1.60;;;;;;;;;;5017260;28;20519;-89
2023/11/07 07:55:08;;;;;;;1.67;1.17;;;;;;;;;;5007567;28;20037;-91
2023/11/07 07:58:00;;;;;;;1.83;1.10;;;;;;;;;;4995253;28;20034;-91
2023/11/07 08:00:52;;;;;;;2.92;1.20;;;;;;;;;;4987798;28;20042;-93
2023/11/07 08:07:21;;;;;;;5.05;1.55;;;;;;;;;;5009086;28;20236;-93
2023/11/07 08:55:43;;;;;;;3.88;2.10;;;;;;;;;;4885408;29;20182;-82
2023/11/07 08:58:28;;;;;;;2.88;1.40;;;;;;;;;;4882020;28;20559;-83
2023/11/07 09:01:14;;;;;;;3.28;1.25;;;;;;;;;;4968609;28;20041;-84
2023/11/07 09:03:59;;;;;;;4.00;1.58;;;;;;;;;;4966668;28;20034;-83
2023/11/07 09:06:45;;;;;;;2.47;1.20;;;;;;;;;;4964174;28;20023;-84
2023/11/07 09:09:30;;;;;;;2.78;1.33;;;;;;;;;;4957780;28;20403;-84
2023/11/07 09:12:15;;;;;;;2.70;1.20;;;;;;;;;;4946334;28;20057;-83
2023/11/07 09:15:00;;;;;;;2.50;1.30;;;;;;;;;;4950910;28;20178;-83
2023/11/07 09:17:45;;;;;;;2.58;1.38;;;;;;;;;;4947129;28;20026;-85
2023/11/07 09:20:31;;;;;;;2.17;1.00;;;;;;;;;;4963129;28;20093;-84
2023/11/07 09:23:17;;;;;;;5.60;1.13;;;;;;;;;;4951445;28;20035;-84
2023/11/07 09:26:02;;;;;;;1.10;1.00;;;;;;;;;;4947328;28;20036;-83
2023/11/07 09:28:48;;;;;;;2.03;1.27;;;;;;;;;;4950443;28;20837;-83
2023/11/07 09:31:33;;;;;;;2.78;1.42;;;;;;;;;;4950198;28;20465;-83
2023/11/07 09:34:20;;;;;;;2.00;1.30;;;;;;;;;;4950006;28;20583;-83
2023/11/07 09:37:09;;;;;;;2.08;1.17;;;;;;;;;;4951527;28;20026;-83
2023/11/07 09:39:54;;;;;;;2.60;0.98;;;;;;;;;;4949914;28;20034;-84
2023/11/07 09:42:40;;;;;;;1.30;1.00;;;;;;;;;;4943395;28;20470;-85
2023/11/07 09:45:27;;;;;;;1.33;0.90;;;;;;;;;;4946902;28;20118;-86
2023/11/07 09:48:13;;;;;;;3.00;1.00;;;;;;;;;;4953745;28;20074;-84
2023/11/07 09:50:59;;;;;;;2.25;1.08;;;;;;;;;;4948464;28;20433;-81
2023/11/07 09:53:46;;;;;;;1.15;0.90;;;;;;;;;;4950221;28;20030;-83
2023/11/07 09:56:32;;;;;;;4.15;1.40;;;;;;;;;;4953761;28;20186;-84
2023/11/07 09:59:25;;;;;;;2.17;0.90;;;;;;;;;;4948324;28;20381;-83
2023/11/07 10:02:10;;;;;;;2.63;1.10;;;;;;;;;;4949846;28;20073;-85
2023/11/07 10:04:55;;;;;;;1.33;0.70;;;;;;;;;;4944177;28;20122;-83
2023/11/07 10:07:41;;;;;;;3.80;1.02;;;;;;;;;;4952335;28;20473;-85
2023/11/07 10:10:26;;;;;;;1.83;1.05;;;;;;;;;;4950600;28;20030;-87
2023/11/07 10:13:12;;;;;;;1.50;0.80;;;;;;;;;;4951526;28;20030;-87
2023/11/07 10:16:06;;;;;;;0.70;0.70;;;;;;;;;;4949857;28;20054;-83
2023/11/07 10:18:51;;;;;;;0.70;0.70;;;;;;;;;;4952125;28;20037;-84
2023/11/07 10:21:37;;;;;;;3.00;0.85;;;;;;;;;;4963023;28;20042;-85
2023/11/07 10:24:22;;;;;;;2.22;1.15;;;;;;;;;;4949586;28;20027;-82
2023/11/07 10:27:10;;;;;;;2.88;0.82;;;;;;;;;;4951404;28;20027;-82
2023/11/07 10:29:55;;;;;;;1.08;0.50;;;;;;;;;;4948753;28;20061;-83
2023/11/07 10:32:44;;;;;;;1.98;1.08;;;;;;;;;;4944617;28;20030;-82
2023/11/07 10:35:30;;;;;;;1.00;0.90;;;;;;;;;;4946067;28;20078;-83
2023/11/07 10:38:15;;;;;;;1.40;0.77;;;;;;;;;;4950742;28;20270;-83
2023/11/07 10:41:04;;;;;;;2.55;1.55;;;;;;;;;;4948693;28;20074;-83
2023/11/07 10:43:49;;;;;;;5.85;0.93;;;;;;;;;;4948022;28;20030;-81
2023/11/07 10:46:34;;;;;;;1.23;0.73;;;;;;;;;;4946317;28;20102;-82
2023/11/07 10:49:20;;;;;;;0.60;0.60;;;;;;;;;;4953537;28;20065;-82
2023/11/07 10:52:05;;;;;;;1.38;0.90;;;;;;;;;;4958323;28;20030;-83
2023/11/07 10:54:50;;;;;;;0.90;0.70;;;;;;;;;;4959044;28;20018;-84
2023/11/07 10:57:36;;;;;;;0.50;0.50;;;;;;;;;;4969514;28;20109;-84
2023/11/07 11:00:24;;;;;;;1.13;0.60;;;;;;;;;;4948204;28;20046;-85
2023/11/07 11:03:12;;;;;;;0.57;0.57;;;;;;;;;;4952140;28;20138;-84
2023/11/07 11:06:00;;;;;;;0.85;0.70;;;;;;;;;;4952103;28;20109;-83
2023/11/07 11:08:46;;;;;;;1.13;0.70;;;;;;;;;;4945330;28;20362;-86
2023/11/07 11:11:33;;;;;;;0.90;0.70;;;;;;;;;;4953916;28;20033;-85
2023/11/07 11:14:19;;;;;;;1.25;0.63;;;;;;;;;;4949620;28;20428;-84
2023/11/07 11:17:09;;;;;;;3.22;0.98;;;;;;;;;;4956209;28;20109;-83
2023/11/07 11:20:03;;;;;;;1.27;0.80;;;;;;;;;;4965169;28;20042;-84
2023/11/07 11:22:52;;;;;;;1.20;0.70;;;;;;;;;;4947367;28;20244;-84
2023/11/07 11:25:56;;;;;;;0.73;0.70;;;;;;;;;;4939953;28;20058;-84
2023/11/07 11:28:42;;;;;;;2.83;0.80;;;;;;;;;;4958660;28;20030;-84
2023/11/07 11:31:34;;;;;;;1.20;0.80;;;;;;;;;;4954195;28;20041;-85
2023/11/07 11:34:25;;;;;;;1.60;0.95;;;;;;;;;;4948434;28;20125;-84
2023/11/07 11:37:10;;;;;;;0.90;0.90;;;;;;;;;;4953929;28;20085;-84
2023/11/07 11:39:59;;;;;;;2.25;0.88;;;;;;;;;;4965758;28;20109;-84
2023/11/07 11:43:03;;;;;;;0.98;0.65;;;;;;;;;;4953699;28;20100;-86
2023/11/07 11:45:49;;;;;;;3.00;1.00;;;;;;;;;;4949198;28;20043;-84
2023/11/07 11:48:49;;;;;;;0.93;0.70;;;;;;;;;;4951338;28;20430;-85
2023/11/07 11:51:36;;;;;;;1.02;0.80;;;;;;;;;;4951223;28;20065;-84
2023/11/07 11:54:21;;;;;;;1.75;0.77;;;;;;;;;;4949978;28;20521;-87
2023/11/07 11:57:06;;;;;;;0.60;0.60;;;;;;;;;;4956005;28;20066;-88
2023/11/07 11:59:55;;;;;;;1.33;0.80;;;;;;;;;;4965677;28;20034;-87
2023/11/07 12:02:41;;;;;;;0.75;0.75;;;;;;;;;;4952622;28;20026;-88
2023/11/07 12:05:27;;;;;;;0.80;0.80;;;;;;;;;;4954135;28;20055;-87
2023/11/07 12:08:32;;;;;;;2.72;1.10;;;;;;;;;;4954935;28;20035;-87
2023/11/07 12:11:17;;;;;;;0.93;0.70;;;;;;;;;;4953540;28;20030;-88
2023/11/07 12:14:02;;;;;;;1.98;0.90;;;;;;;;;;4956234;28;20038;-87
2023/11/07 12:16:57;;;;;;;2.40;0.70;;;;;;;;;;4953610;28;20785;-85
2023/11/07 12:19:44;;;;;;;0.70;0.70;;;;;;;;;;4950783;28;20030;-83
2023/11/07 12:22:30;;;;;;;1.83;0.95;;;;;;;;;;4950511;28;20090;-84
2023/11/07 12:25:19;;;;;;;1.58;0.80;;;;;;;;;;4950375;28;20031;-84
2023/11/07 12:28:05;;;;;;;1.85;0.80;;;;;;;;;;4966050;28;20027;-85
2023/11/07 12:30:54;;;;;;;2.03;1.00;;;;;;;;;;4966984;28;20023;-83
2023/11/07 12:33:43;;;;;;;2.93;0.80;;;;;;;;;;4961420;28;20108;-84
2023/11/07 12:36:29;;;;;;;3.95;0.75;;;;;;;;;;4965366;28;20361;-84
2023/11/07 12:39:14;;;;;;;0.60;0.60;;;;;;;;;;4966035;28;20042;-84
2023/11/07 12:42:00;;;;;;;0.60;0.60;;;;;;;;;;4962176;28;20038;-84
2023/11/07 12:44:49;;;;;;;1.70;0.70;;;;;;;;;;4948201;28;20035;-82
2023/11/07 12:47:35;;;;;;;0.80;0.80;;;;;;;;;;4962191;28;20055;-85
2023/11/07 12:50:21;;;;;;;1.90;0.60;;;;;;;;;;4950557;28;20058;-85
2023/11/07 12:53:06;;;;;;;0.52;0.52;;;;;;;;;;4949834;28;20114;-85
2023/11/07 12:55:52;;;;;;;1.20;0.70;;;;;;;;;;4952261;28;20363;-85
2023/11/07 12:58:37;;;;;;;0.50;0.50;;;;;;;;;;4954242;28;20031;-83
2023/11/07 13:01:23;;;;;;;1.17;0.60;;;;;;;;;;4948006;28;20074;-84
2023/11/07 13:04:13;;;;;;;0.80;0.50;;;;;;;;;;4944773;28;20062;-84
2023/11/07 13:07:01;;;;;;;0.80;0.50;;;;;;;;;;4945274;28;20031;-83
2023/11/07 13:09:48;;;;;;;1.85;0.57;;;;;;;;;;4951815;28;20031;-83
2023/11/07 13:12:35;;;;;;;0.50;0.50;;;;;;;;;;4960193;28;20026;-83
2023/11/07 13:15:20;;;;;;;0.50;0.50;;;;;;;;;;4950305;28;20393;-86
2023/11/07 13:18:06;;;;;;;1.63;1.40;;;;;;;;;;4945006;28;20034;-85
2023/11/07 13:20:51;;;;;;;1.60;0.90;;;;;;;;;;4946596;28;20018;-84
2023/11/07 13:23:37;;;;;;;1.40;0.93;;;;;;;;;;4949913;28;20036;-83
2023/11/07 13:26:23;;;;;;;1.15;0.50;;;;;;;;;;4951136;28;20085;-83
2023/11/07 13:29:08;;;;;;;1.65;0.73;;;;;;;;;;4955448;28;20061;-82
2023/11/07 13:31:53;;;;;;;0.55;0.50;;;;;;;;;;4944489;28;20139;-84
2023/11/07 13:34:39;;;;;;;1.05;0.63;;;;;;;;;;4938540;28;20055;-82
2023/11/07 13:37:24;;;;;;;2.15;0.80;;;;;;;;;;4927826;29;20031;-84
2023/11/07 13:40:10;;;;;;;1.10;0.60;;;;;;;;;;4941458;29;20418;-86
2023/11/07 13:42:57;;;;;;;0.50;0.50;;;;;;;;;;4929459;29;20062;-84
2023/11/07 13:45:42;;;;;;;1.05;0.65;;;;;;;;;;4927665;29;21798;-84
2023/11/07 13:48:31;;;;;;;1.20;0.77;;;;;;;;;;4927649;29;20028;-83
2023/11/07 13:51:16;;;;;;;0.80;0.60;;;;;;;;;;4939439;29;20798;-84
2023/11/07 13:54:03;;;;;;;0.68;0.50;;;;;;;;;;4940723;28;20498;-83
2023/11/07 13:56:49;;;;;;;1.90;0.75;;;;;;;;;;4937995;28;20035;-84
2023/11/07 13:59:35;;;;;;;2.25;0.93;;;;;;;;;;4924522;29;20043;-85
2023/11/07 14:02:21;;;;;;;0.80;0.80;;;;;;;;;;4926278;29;20490;-86
2023/11/07 14:05:06;;;;;;;0.68;0.60;;;;;;;;;;4937991;28;20457;-84
2023/11/07 14:07:52;;;;;;;1.02;0.68;;;;;;;;;;4925773;29;20027;-83
2023/11/07 14:10:37;;;;;;;0.50;0.50;;;;;;;;;;4935736;28;20032;-85
2023/11/07 14:13:23;;;;;;;0.95;0.77;;;;;;;;;;4930475;29;20031;-85
2023/11/07 14:16:38;;;;;;;1.15;0.60;;;;;;;;;;4935410;29;20047;-84
2023/11/07 14:19:23;;;;;;;0.50;0.50;;;;;;;;;;4915761;29;20568;-85
2023/11/07 14:22:19;;;;;;;0.68;0.50;;;;;;;;;;4929343;29;20043;-86
2023/11/07 14:25:43;;;;;;;1.05;0.60;;;;;;;;;;4926323;29;20024;-86
2023/11/07 14:28:31;;;;;;;2.45;1.05;;;;;;;;;;4929417;29;20268;-84
2023/11/07 14:31:18;;;;;;;2.80;0.90;;;;;;;;;;4927421;29;20035;-83
2023/11/07 14:34:04;;;;;;;1.83;1.10;;;;;;;;;;4933741;29;20087;-83
2023/11/07 14:36:49;;;;;;;1.00;0.75;;;;;;;;;;4949223;29;20062;-83
2023/11/07 14:39:35;;;;;;;0.85;0.70;;;;;;;;;;4946989;28;20029;-84
2023/11/07 14:42:20;;;;;;;0.77;0.65;;;;;;;;;;4948397;28;20067;-82
2023/11/07 14:45:09;;;;;;;1.63;0.70;;;;;;;;;;4931706;29;20103;-85
2023/11/07 14:47:54;;;;;;;0.80;0.70;;;;;;;;;;4947007;28;20568;-84
2023/11/07 14:50:39;;;;;;;1.20;0.55;;;;;;;;;;4943731;29;20027;-83
2023/11/07 14:53:25;;;;;;;0.47;0.47;;;;;;;;;;4948582;28;20023;-83
2023/11/07 14:56:13;;;;;;;1.27;0.52;;;;;;;;;;4948999;28;20042;-82
2023/11/07 14:58:59;;;;;;;0.93;0.73;;;;;;;;;;4943735;29;20027;-82
2023/11/07 15:01:47;;;;;;;0.68;0.63;;;;;;;;;;4947485;29;20118;-86
2023/11/07 15:04:32;;;;;;;1.25;0.80;;;;;;;;;;4952264;28;20034;-84
2023/11/07 15:07:18;;;;;;;1.95;0.70;;;;;;;;;;4943642;29;20030;-82
2023/11/07 15:10:05;;;;;;;1.95;0.60;;;;;;;;;;4948717;28;20466;-83
2023/11/07 15:12:51;;;;;;;1.08;0.60;;;;;;;;;;4947412;29;20035;-84
2023/11/07 15:15:37;;;;;;;0.80;0.50;;;;;;;;;;4948073;28;20078;-82
2023/11/07 15:18:24;;;;;;;1.95;0.60;;;;;;;;;;4942921;28;20067;-82
2023/11/07 15:21:11;;;;;;;1.80;0.80;;;;;;;;;;4944691;28;20027;-83
2023/11/07 15:23:56;;;;;;;0.60;0.57;;;;;;;;;;4948096;29;20516;-82
2023/11/07 15:26:41;;;;;;;1.45;0.75;;;;;;;;;;4948664;29;20038;-82
2023/11/07 15:29:27;;;;;;;1.73;0.85;;;;;;;;;;4947168;28;20038;-82
2023/11/07 15:32:12;;;;;;;1.52;0.73;;;;;;;;;;4947733;28;20150;-82
2023/11/07 15:34:57;;;;;;;1.05;0.70;;;;;;;;;;4947688;29;20043;-82
2023/11/07 15:37:46;;;;;;;1.13;0.80;;;;;;;;;;4945441;29;20042;-80
2023/11/07 15:40:31;;;;;;;2.30;1.00;;;;;;;;;;4945833;29;20461;-81
2023/11/07 15:43:16;;;;;;;0.90;0.68;;;;;;;;;;4945555;29;20047;-80
2023/11/07 15:46:01;;;;;;;0.88;0.80;;;;;;;;;;4945201;29;20034;-83
2023/11/07 15:48:46;;;;;;;1.52;0.80;;;;;;;;;;4949036;28;20038;-86
2023/11/07 15:51:32;;;;;;;2.47;1.00;;;;;;;;;;4956791;28;20031;-84
2023/11/07 15:54:17;;;;;;;6.55;0.90;;;;;;;;;;4940650;29;20119;-84
2023/11/07 15:57:03;;;;;;;3.95;0.95;;;;;;;;;;4937690;28;20521;-82
2023/11/07 15:59:48;;;;;;;1.98;0.95;;;;;;;;;;4941061;28;20051;-83
2023/11/07 16:02:33;;;;;;;4.00;0.80;;;;;;;;;;4955200;28;20027;-82
2023/11/07 16:05:19;;;;;;;3.25;1.08;;;;;;;;;;4939987;28;20031;-82
2023/11/07 16:08:05;;;;;;;1.08;0.88;;;;;;;;;;4940914;29;20103;-83
2023/11/07 16:10:51;;;;;;;1.33;0.70;;;;;;;;;;4940675;29;20038;-81
2023/11/07 16:13:36;;;;;;;0.55;0.55;;;;;;;;;;4937405;28;20039;-81
2023/11/07 16:16:22;;;;;;;0.63;0.63;;;;;;;;;;4940613;29;20766;-82
2023/11/07 16:19:07;;;;;;;1.25;0.73;;;;;;;;;;4946353;29;20489;-84
2023/11/07 16:21:54;;;;;;;3.03;1.10;;;;;;;;;;4941992;28;20470;-83
2023/11/07 16:24:40;;;;;;;1.30;0.80;;;;;;;;;;4941205;29;20039;-83
2023/11/07 16:27:25;;;;;;;3.90;0.90;;;;;;;;;;4935218;29;20019;-84
2023/11/07 16:30:13;;;;;;;5.60;0.75;;;;;;;;;;4949547;28;20034;-83
2023/11/07 16:32:58;;;;;;;2.10;0.95;;;;;;;;;;4950260;28;20031;-82
2023/11/07 16:35:43;;;;;;;1.52;0.85;;;;;;;;;;4950177;28;20030;-83
2023/11/07 16:38:29;;;;;;;1.90;1.02;;;;;;;;;;4947802;28;20089;-81
2023/11/07 16:41:14;;;;;;;3.63;0.73;;;;;;;;;;4943044;28;20031;-79
2023/11/07 16:43:59;;;;;;;1.63;0.60;;;;;;;;;;4949954;28;20153;-80
2023/11/07 16:46:45;;;;;;;1.23;0.70;;;;;;;;;;4946586;28;20033;-81
2023/11/07 16:49:30;;;;;;;0.90;0.85;;;;;;;;;;4949763;28;20034;-80
2023/11/07 16:52:16;;;;;;;1.00;0.70;;;;;;;;;;4950200;28;20058;-82
2023/11/07 16:55:03;;;;;;;2.47;1.02;;;;;;;;;;4926937;28;20027;-83
2023/11/07 16:57:48;;;;;;;3.53;0.90;;;;;;;;;;4963634;28;20043;-82
2023/11/07 17:00:33;;;;;;;3.50;0.88;;;;;;;;;;4943012;28;20060;-82
2023/11/07 17:03:18;;;;;;;3.50;0.80;;;;;;;;;;4951393;28;20046;-83
2023/11/07 17:06:04;;;;;;;2.67;0.77;;;;;;;;;;4949113;28;20023;-82
2023/11/07 17:08:49;;;;;;;1.00;0.88;;;;;;;;;;4945500;29;20075;-83
2023/11/07 17:11:34;;;;;;;2.00;0.88;;;;;;;;;;4960195;28;20126;-85
2023/11/07 17:14:20;;;;;;;4.32;0.90;;;;;;;;;;4947287;28;20085;-85
2023/11/07 17:17:05;;;;;;;1.65;1.00;;;;;;;;;;4960789;28;20046;-84
2023/11/07 17:19:51;;;;;;;2.08;1.10;;;;;;;;;;4959400;28;20073;-86
2023/11/07 17:22:37;;;;;;;3.63;1.20;;;;;;;;;;4948717;28;20095;-85
2023/11/07 17:25:22;;;;;;;3.63;1.13;;;;;;;;;;4950748;28;20045;-85
2023/11/07 17:28:09;;;;;;;1.92;1.00;;;;;;;;;;4956601;28;20019;-85
2023/11/07 17:31:13;;;;;;;3.22;1.48;;;;;;;;;;4948032;28;20362;-85
2023/11/07 17:33:58;;;;;;;2.63;1.88;;;;;;;;;;4951730;28;20180;-85
2023/11/07 17:36:45;;;;;;;2.75;1.40;;;;;;;;;;4938995;28;20042;-85
2023/11/07 17:39:30;;;;;;;1.75;1.00;;;;;;;;;;4948319;28;20034;-85
2023/11/07 17:42:16;;;;;;;3.15;1.20;;;;;;;;;;4955764;28;20081;-84